sensor_id;sensor_type;location;lat;lon;timestamp;P1;durP1;ratioP1;P2;durP2;ratioP2
40997;SDS011;26740;45.944;12.480;2023-03-23T00:01:12;43.40;;;26.15;;
40997;SDS011;26740;45.944;12.480;2023-03-23T00:03:40;41.33;;;26.38;;
40997;SDS011;26740;45.944;12.480;2023-03-23T00:06:06;45.92;;;26.70;;
40997;SDS011;26740;45.944;12.480;2023-03-23T00:08:33;44.15;;;27.75;;
40997;SDS011;26740;45.944;12.480;2023-03-23T00:11:03;42.63;;;27.55;;
40997;SDS011;26740;45.944;12.480;2023-03-23T00:13:29;49.60;;;28.70;;
40997;SDS011;26740;45.944;12.480;2023-03-23T00:15:56;46.08;;;29.35;;
40997;SDS011;26740;45.944;12.480;2023-03-23T00:18:22;41.70;;;27.65;;
40997;SDS011;26740;45.944;12.480;2023-03-23T00:20:52;50.20;;;28.77;;
40997;SDS011;26740;45.944;12.480;2023-03-23T00:23:19;42.78;;;28.95;;
40997;SDS011;26740;45.944;12.480;2023-03-23T00:25:48;45.20;;;28.23;;
40997;SDS011;26740;45.944;12.480;2023-03-23T00:28:18;42.45;;;28.83;;
40997;SDS011;26740;45.944;12.480;2023-03-23T00:30:54;45.35;;;27.75;;
40997;SDS011;26740;45.944;12.480;2023-03-23T00:33:25;46.17;;;29.45;;
40997;SDS011;26740;45.944;12.480;2023-03-23T00:35:52;47.75;;;27.67;;
40997;SDS011;26740;45.944;12.480;2023-03-23T00:38:20;44.75;;;26.40;;
40997;SDS011;26740;45.944;12.480;2023-03-23T00:40:47;44.67;;;28.42;;
40997;SDS011;26740;45.944;12.480;2023-03-23T00:43:16;41.38;;;27.75;;
40997;SDS011;26740;45.944;12.480;2023-03-23T00:45:43;46.83;;;28.08;;
40997;SDS011;26740;45.944;12.480;2023-03-23T00:48:14;44.17;;;27.60;;
40997;SDS011;26740;45.944;12.480;2023-03-23T00:50:40;46.67;;;28.73;;
40997;SDS011;26740;45.944;12.480;2023-03-23T00:53:06;40.15;;;27.15;;
40997;SDS011;26740;45.944;12.480;2023-03-23T00:55:32;40.42;;;26.77;;
40997;SDS011;26740;45.944;12.480;2023-03-23T00:57:58;41.15;;;27.27;;
40997;SDS011;26740;45.944;12.480;2023-03-23T01:00:24;44.17;;;27.45;;
40997;SDS011;26740;45.944;12.480;2023-03-23T01:02:52;37.40;;;25.33;;
40997;SDS011;26740;45.944;12.480;2023-03-23T01:05:18;39.63;;;25.83;;
40997;SDS011;26740;45.944;12.480;2023-03-23T01:07:44;43.65;;;26.13;;
40997;SDS011;26740;45.944;12.480;2023-03-23T01:10:11;44.20;;;27.17;;
40997;SDS011;26740;45.944;12.480;2023-03-23T01:12:40;45.28;;;27.23;;
40997;SDS011;26740;45.944;12.480;2023-03-23T01:15:06;42.97;;;26.52;;
40997;SDS011;26740;45.944;12.480;2023-03-23T01:17:32;46.72;;;26.98;;
40997;SDS011;26740;45.944;12.480;2023-03-23T01:19:58;41.63;;;25.75;;
40997;SDS011;26740;45.944;12.480;2023-03-23T01:22:23;43.00;;;27.83;;
40997;SDS011;26740;45.944;12.480;2023-03-23T01:24:49;40.78;;;26.92;;
40997;SDS011;26740;45.944;12.480;2023-03-23T01:27:14;43.10;;;26.58;;
40997;SDS011;26740;45.944;12.480;2023-03-23T01:29:40;43.00;;;26.67;;
40997;SDS011;26740;45.944;12.480;2023-03-23T01:32:05;43.35;;;28.08;;
40997;SDS011;26740;45.944;12.480;2023-03-23T01:34:31;45.97;;;29.60;;
40997;SDS011;26740;45.944;12.480;2023-03-23T01:36:57;46.17;;;28.73;;
40997;SDS011;26740;45.944;12.480;2023-03-23T01:39:22;42.03;;;27.55;;
40997;SDS011;26740;45.944;12.480;2023-03-23T01:41:48;46.60;;;27.13;;
40997;SDS011;26740;45.944;12.480;2023-03-23T01:46:42;43.20;;;27.55;;
40997;SDS011;26740;45.944;12.480;2023-03-23T01:49:11;41.60;;;27.23;;
40997;SDS011;26740;45.944;12.480;2023-03-23T01:51:43;48.80;;;28.77;;
40997;SDS011;26740;45.944;12.480;2023-03-23T01:54:14;43.95;;;28.08;;
40997;SDS011;26740;45.944;12.480;2023-03-23T01:56:47;47.05;;;27.88;;
40997;SDS011;26740;45.944;12.480;2023-03-23T01:59:16;44.40;;;27.58;;
40997;SDS011;26740;45.944;12.480;2023-03-23T02:01:42;42.53;;;27.75;;
40997;SDS011;26740;45.944;12.480;2023-03-23T02:04:13;49.50;;;30.70;;
40997;SDS011;26740;45.944;12.480;2023-03-23T02:06:41;52.13;;;30.90;;
40997;SDS011;26740;45.944;12.480;2023-03-23T02:09:07;43.90;;;28.75;;
40997;SDS011;26740;45.944;12.480;2023-03-23T02:11:33;45.58;;;28.90;;
40997;SDS011;26740;45.944;12.480;2023-03-23T02:13:59;53.53;;;30.52;;
40997;SDS011;26740;45.944;12.480;2023-03-23T02:18:53;58.45;;;33.20;;
40997;SDS011;26740;45.944;12.480;2023-03-23T02:26:53;45.92;;;28.35;;
40997;SDS011;26740;45.944;12.480;2023-03-23T02:30:22;49.22;;;30.17;;
40997;SDS011;26740;45.944;12.480;2023-03-23T02:35:18;49.05;;;27.33;;
40997;SDS011;26740;45.944;12.480;2023-03-23T02:37:58;39.40;;;26.67;;
40997;SDS011;26740;45.944;12.480;2023-03-23T02:40:32;48.35;;;28.38;;
40997;SDS011;26740;45.944;12.480;2023-03-23T02:43:03;47.25;;;27.58;;
40997;SDS011;26740;45.944;12.480;2023-03-23T02:45:34;47.55;;;29.50;;
40997;SDS011;26740;45.944;12.480;2023-03-23T02:48:04;45.17;;;27.03;;
40997;SDS011;26740;45.944;12.480;2023-03-23T02:50:31;49.08;;;27.40;;
40997;SDS011;26740;45.944;12.480;2023-03-23T02:52:58;46.17;;;27.70;;
40997;SDS011;26740;45.944;12.480;2023-03-23T02:55:26;50.05;;;26.83;;
40997;SDS011;26740;45.944;12.480;2023-03-23T02:57:55;42.88;;;27.02;;
40997;SDS011;26740;45.944;12.480;2023-03-23T03:00:21;44.28;;;26.40;;
40997;SDS011;26740;45.944;12.480;2023-03-23T03:02:48;39.40;;;25.73;;
40997;SDS011;26740;45.944;12.480;2023-03-23T03:08:18;38.42;;;24.52;;
40997;SDS011;26740;45.944;12.480;2023-03-23T03:13:54;41.25;;;25.63;;
40997;SDS011;26740;45.944;12.480;2023-03-23T03:21:22;43.28;;;25.83;;
40997;SDS011;26740;45.944;12.480;2023-03-23T03:26:19;42.90;;;24.58;;
40997;SDS011;26740;45.944;12.480;2023-03-23T03:28:51;40.00;;;25.83;;
40997;SDS011;26740;45.944;12.480;2023-03-23T03:31:19;39.47;;;26.42;;
40997;SDS011;26740;45.944;12.480;2023-03-23T03:33:49;42.47;;;25.70;;
40997;SDS011;26740;45.944;12.480;2023-03-23T03:36:20;38.28;;;24.95;;
40997;SDS011;26740;45.944;12.480;2023-03-23T03:38:48;43.72;;;25.55;;
40997;SDS011;26740;45.944;12.480;2023-03-23T03:41:15;40.67;;;25.20;;
40997;SDS011;26740;45.944;12.480;2023-03-23T03:43:42;43.15;;;27.60;;
40997;SDS011;26740;45.944;12.480;2023-03-23T03:46:07;43.92;;;26.10;;
40997;SDS011;26740;45.944;12.480;2023-03-23T03:48:33;43.83;;;25.17;;
40997;SDS011;26740;45.944;12.480;2023-03-23T03:50:58;45.47;;;27.58;;
40997;SDS011;26740;45.944;12.480;2023-03-23T03:53:26;37.72;;;24.45;;
40997;SDS011;26740;45.944;12.480;2023-03-23T03:55:52;41.08;;;24.50;;
40997;SDS011;26740;45.944;12.480;2023-03-23T03:58:21;39.92;;;24.52;;
40997;SDS011;26740;45.944;12.480;2023-03-23T04:00:47;51.75;;;25.02;;
40997;SDS011;26740;45.944;12.480;2023-03-23T04:03:14;50.38;;;27.38;;
40997;SDS011;26740;45.944;12.480;2023-03-23T04:05:40;41.20;;;24.77;;
40997;SDS011;26740;45.944;12.480;2023-03-23T04:08:06;45.97;;;28.42;;
40997;SDS011;26740;45.944;12.480;2023-03-23T04:10:32;42.47;;;26.67;;
40997;SDS011;26740;45.944;12.480;2023-03-23T04:12:58;41.20;;;25.33;;
40997;SDS011;26740;45.944;12.480;2023-03-23T04:15:24;45.05;;;26.65;;
40997;SDS011;26740;45.944;12.480;2023-03-23T04:17:51;42.60;;;26.35;;
40997;SDS011;26740;45.944;12.480;2023-03-23T04:20:16;38.15;;;24.55;;
40997;SDS011;26740;45.944;12.480;2023-03-23T04:22:45;45.20;;;25.20;;
40997;SDS011;26740;45.944;12.480;2023-03-23T04:25:15;42.60;;;26.23;;
40997;SDS011;26740;45.944;12.480;2023-03-23T04:27:42;42.00;;;26.08;;
40997;SDS011;26740;45.944;12.480;2023-03-23T04:30:12;42.67;;;26.67;;
40997;SDS011;26740;45.944;12.480;2023-03-23T04:32:39;40.53;;;24.48;;
40997;SDS011;26740;45.944;12.480;2023-03-23T04:35:08;44.03;;;26.90;;
40997;SDS011;26740;45.944;12.480;2023-03-23T04:37:36;41.65;;;24.33;;
40997;SDS011;26740;45.944;12.480;2023-03-23T04:40:03;37.65;;;24.33;;
40997;SDS011;26740;45.944;12.480;2023-03-23T04:42:36;41.10;;;24.48;;
40997;SDS011;26740;45.944;12.480;2023-03-23T04:45:03;38.28;;;22.85;;
40997;SDS011;26740;45.944;12.480;2023-03-23T04:47:35;40.70;;;24.95;;
40997;SDS011;26740;45.944;12.480;2023-03-23T04:50:08;42.78;;;24.10;;
40997;SDS011;26740;45.944;12.480;2023-03-23T04:52:37;40.17;;;25.33;;
40997;SDS011;26740;45.944;12.480;2023-03-23T04:55:04;43.22;;;26.48;;
40997;SDS011;26740;45.944;12.480;2023-03-23T04:57:31;43.67;;;26.33;;
40997;SDS011;26740;45.944;12.480;2023-03-23T04:59:57;44.75;;;24.90;;
40997;SDS011;26740;45.944;12.480;2023-03-23T05:02:22;38.30;;;24.52;;
40997;SDS011;26740;45.944;12.480;2023-03-23T05:04:50;44.42;;;25.98;;
40997;SDS011;26740;45.944;12.480;2023-03-23T05:07:16;42.85;;;25.52;;
40997;SDS011;26740;45.944;12.480;2023-03-23T05:09:42;45.20;;;26.42;;
40997;SDS011;26740;45.944;12.480;2023-03-23T05:12:12;47.17;;;26.65;;
40997;SDS011;26740;45.944;12.480;2023-03-23T05:14:40;46.40;;;26.15;;
40997;SDS011;26740;45.944;12.480;2023-03-23T05:17:06;48.80;;;25.85;;
40997;SDS011;26740;45.944;12.480;2023-03-23T05:19:32;47.83;;;26.30;;
40997;SDS011;26740;45.944;12.480;2023-03-23T05:21:58;43.67;;;25.52;;
40997;SDS011;26740;45.944;12.480;2023-03-23T05:24:28;39.70;;;24.58;;
40997;SDS011;26740;45.944;12.480;2023-03-23T05:26:56;35.80;;;23.17;;
40997;SDS011;26740;45.944;12.480;2023-03-23T05:29:22;46.90;;;27.77;;
40997;SDS011;26740;45.944;12.480;2023-03-23T05:31:48;47.90;;;27.55;;
40997;SDS011;26740;45.944;12.480;2023-03-23T05:34:14;44.50;;;26.00;;
40997;SDS011;26740;45.944;12.480;2023-03-23T05:36:41;39.40;;;24.67;;
40997;SDS011;26740;45.944;12.480;2023-03-23T05:39:09;37.38;;;24.23;;
40997;SDS011;26740;45.944;12.480;2023-03-23T05:41:36;45.25;;;26.27;;
40997;SDS011;26740;45.944;12.480;2023-03-23T05:44:02;39.53;;;25.67;;
40997;SDS011;26740;45.944;12.480;2023-03-23T05:46:28;44.22;;;27.45;;
40997;SDS011;26740;45.944;12.480;2023-03-23T05:48:54;38.05;;;25.50;;
40997;SDS011;26740;45.944;12.480;2023-03-23T05:51:20;42.65;;;24.88;;
40997;SDS011;26740;45.944;12.480;2023-03-23T05:53:45;48.70;;;25.83;;
40997;SDS011;26740;45.944;12.480;2023-03-23T05:56:12;39.20;;;23.45;;
40997;SDS011;26740;45.944;12.480;2023-03-23T05:58:38;41.67;;;25.08;;
40997;SDS011;26740;45.944;12.480;2023-03-23T06:01:07;36.45;;;24.73;;
40997;SDS011;26740;45.944;12.480;2023-03-23T06:03:33;48.28;;;27.98;;
40997;SDS011;26740;45.944;12.480;2023-03-23T06:06:02;38.42;;;23.42;;
40997;SDS011;26740;45.944;12.480;2023-03-23T06:08:28;44.65;;;25.52;;
40997;SDS011;26740;45.944;12.480;2023-03-23T06:10:54;46.42;;;27.75;;
40997;SDS011;26740;45.944;12.480;2023-03-23T06:13:20;41.83;;;26.67;;
40997;SDS011;26740;45.944;12.480;2023-03-23T06:15:46;41.85;;;24.27;;
40997;SDS011;26740;45.944;12.480;2023-03-23T06:18:12;34.90;;;21.50;;
40997;SDS011;26740;45.944;12.480;2023-03-23T06:20:38;44.30;;;25.50;;
40997;SDS011;26740;45.944;12.480;2023-03-23T06:23:04;39.50;;;24.95;;
40997;SDS011;26740;45.944;12.480;2023-03-23T06:25:30;35.60;;;23.75;;
40997;SDS011;26740;45.944;12.480;2023-03-23T06:27:56;44.33;;;25.67;;
40997;SDS011;26740;45.944;12.480;2023-03-23T06:30:22;43.80;;;25.55;;
40997;SDS011;26740;45.944;12.480;2023-03-23T06:32:48;41.95;;;24.85;;
40997;SDS011;26740;45.944;12.480;2023-03-23T06:35:15;37.08;;;23.65;;
40997;SDS011;26740;45.944;12.480;2023-03-23T06:37:41;41.22;;;24.55;;
40997;SDS011;26740;45.944;12.480;2023-03-23T06:40:07;40.58;;;24.58;;
40997;SDS011;26740;45.944;12.480;2023-03-23T06:42:33;38.50;;;24.75;;
40997;SDS011;26740;45.944;12.480;2023-03-23T06:44:59;36.00;;;24.17;;
40997;SDS011;26740;45.944;12.480;2023-03-23T06:47:28;43.65;;;26.75;;
40997;SDS011;26740;45.944;12.480;2023-03-23T06:49:57;38.60;;;25.10;;
40997;SDS011;26740;45.944;12.480;2023-03-23T06:52:24;37.55;;;24.75;;
40997;SDS011;26740;45.944;12.480;2023-03-23T06:54:51;43.20;;;25.85;;
40997;SDS011;26740;45.944;12.480;2023-03-23T06:57:17;40.10;;;25.98;;
40997;SDS011;26740;45.944;12.480;2023-03-23T06:59:43;39.63;;;26.75;;
40997;SDS011;26740;45.944;12.480;2023-03-23T07:02:13;40.22;;;26.88;;
40997;SDS011;26740;45.944;12.480;2023-03-23T07:04:39;42.47;;;26.65;;
40997;SDS011;26740;45.944;12.480;2023-03-23T07:07:07;38.63;;;27.70;;
40997;SDS011;26740;45.944;12.480;2023-03-23T07:09:33;50.38;;;28.58;;
40997;SDS011;26740;45.944;12.480;2023-03-23T07:11:59;45.60;;;30.42;;
40997;SDS011;26740;45.944;12.480;2023-03-23T07:14:25;47.67;;;30.70;;
40997;SDS011;26740;45.944;12.480;2023-03-23T07:16:51;50.85;;;31.63;;
40997;SDS011;26740;45.944;12.480;2023-03-23T07:19:18;47.83;;;31.27;;
40997;SDS011;26740;45.944;12.480;2023-03-23T07:21:44;47.65;;;30.92;;
40997;SDS011;26740;45.944;12.480;2023-03-23T07:24:10;48.53;;;31.40;;
40997;SDS011;26740;45.944;12.480;2023-03-23T07:26:39;43.28;;;28.33;;
40997;SDS011;26740;45.944;12.480;2023-03-23T07:29:08;44.83;;;28.55;;
40997;SDS011;26740;45.944;12.480;2023-03-23T07:31:34;44.58;;;29.08;;
40997;SDS011;26740;45.944;12.480;2023-03-23T07:34:01;40.00;;;27.98;;
40997;SDS011;26740;45.944;12.480;2023-03-23T07:36:29;39.42;;;28.02;;
40997;SDS011;26740;45.944;12.480;2023-03-23T07:38:55;38.65;;;26.55;;
40997;SDS011;26740;45.944;12.480;2023-03-23T07:41:21;40.95;;;27.42;;
40997;SDS011;26740;45.944;12.480;2023-03-23T07:43:47;40.78;;;28.08;;
40997;SDS011;26740;45.944;12.480;2023-03-23T07:46:13;40.72;;;26.92;;
40997;SDS011;26740;45.944;12.480;2023-03-23T07:48:39;40.30;;;27.27;;
40997;SDS011;26740;45.944;12.480;2023-03-23T07:51:05;43.40;;;26.25;;
40997;SDS011;26740;45.944;12.480;2023-03-23T07:53:32;38.88;;;27.90;;
40997;SDS011;26740;45.944;12.480;2023-03-23T07:55:58;38.42;;;28.45;;
40997;SDS011;26740;45.944;12.480;2023-03-23T07:58:24;39.15;;;27.52;;
40997;SDS011;26740;45.944;12.480;2023-03-23T08:00:51;39.78;;;29.33;;
40997;SDS011;26740;45.944;12.480;2023-03-23T08:03:17;42.47;;;27.63;;
40997;SDS011;26740;45.944;12.480;2023-03-23T08:05:43;40.30;;;28.10;;
40997;SDS011;26740;45.944;12.480;2023-03-23T08:08:09;40.15;;;28.98;;
40997;SDS011;26740;45.944;12.480;2023-03-23T08:10:35;40.85;;;27.73;;
40997;SDS011;26740;45.944;12.480;2023-03-23T08:13:01;39.08;;;28.83;;
40997;SDS011;26740;45.944;12.480;2023-03-23T08:15:27;44.35;;;29.95;;
40997;SDS011;26740;45.944;12.480;2023-03-23T08:17:53;37.80;;;29.02;;
40997;SDS011;26740;45.944;12.480;2023-03-23T08:20:20;48.80;;;28.92;;
40997;SDS011;26740;45.944;12.480;2023-03-23T08:25:20;35.45;;;25.90;;
40997;SDS011;26740;45.944;12.480;2023-03-23T08:27:47;43.70;;;28.92;;
40997;SDS011;26740;45.944;12.480;2023-03-23T08:30:17;36.47;;;28.42;;
40997;SDS011;26740;45.944;12.480;2023-03-23T08:32:44;42.67;;;30.52;;
40997;SDS011;26740;45.944;12.480;2023-03-23T08:35:12;40.67;;;28.42;;
40997;SDS011;26740;45.944;12.480;2023-03-23T08:37:39;39.50;;;26.38;;
40997;SDS011;26740;45.944;12.480;2023-03-23T08:40:07;46.38;;;29.73;;
40997;SDS011;26740;45.944;12.480;2023-03-23T08:42:37;35.22;;;28.17;;
40997;SDS011;26740;45.944;12.480;2023-03-23T08:45:04;44.28;;;28.80;;
40997;SDS011;26740;45.944;12.480;2023-03-23T08:47:32;40.08;;;27.92;;
40997;SDS011;26740;45.944;12.480;2023-03-23T08:49:58;38.40;;;28.80;;
40997;SDS011;26740;45.944;12.480;2023-03-23T08:52:23;41.25;;;29.38;;
40997;SDS011;26740;45.944;12.480;2023-03-23T08:54:49;44.60;;;28.55;;
40997;SDS011;26740;45.944;12.480;2023-03-23T08:57:15;48.47;;;28.92;;
40997;SDS011;26740;45.944;12.480;2023-03-23T08:59:41;41.35;;;29.80;;
40997;SDS011;26740;45.944;12.480;2023-03-23T09:02:10;44.55;;;30.70;;
40997;SDS011;26740;45.944;12.480;2023-03-23T09:04:39;41.80;;;30.88;;
40997;SDS011;26740;45.944;12.480;2023-03-23T09:07:12;41.72;;;31.27;;
40997;SDS011;26740;45.944;12.480;2023-03-23T09:09:39;39.25;;;29.30;;
40997;SDS011;26740;45.944;12.480;2023-03-23T09:12:06;39.33;;;30.05;;
40997;SDS011;26740;45.944;12.480;2023-03-23T09:14:33;38.60;;;27.63;;
40997;SDS011;26740;45.944;12.480;2023-03-23T09:17:00;42.72;;;28.75;;
40997;SDS011;26740;45.944;12.480;2023-03-23T09:19:26;40.42;;;28.42;;
40997;SDS011;26740;45.944;12.480;2023-03-23T09:21:52;37.50;;;27.80;;
40997;SDS011;26740;45.944;12.480;2023-03-23T09:24:18;38.30;;;27.45;;
40997;SDS011;26740;45.944;12.480;2023-03-23T09:26:44;33.78;;;25.75;;
40997;SDS011;26740;45.944;12.480;2023-03-23T09:29:10;35.75;;;26.65;;
40997;SDS011;26740;45.944;12.480;2023-03-23T09:31:37;29.85;;;25.30;;
40997;SDS011;26740;45.944;12.480;2023-03-23T09:34:05;37.42;;;29.38;;
40997;SDS011;26740;45.944;12.480;2023-03-23T09:36:34;37.67;;;27.30;;
40997;SDS011;26740;45.944;12.480;2023-03-23T09:39:05;39.22;;;27.88;;
40997;SDS011;26740;45.944;12.480;2023-03-23T09:41:42;42.65;;;29.23;;
40997;SDS011;26740;45.944;12.480;2023-03-23T09:44:34;36.20;;;27.23;;
40997;SDS011;26740;45.944;12.480;2023-03-23T09:47:23;32.25;;;25.90;;
40997;SDS011;26740;45.944;12.480;2023-03-23T09:49:59;37.30;;;26.98;;
40997;SDS011;26740;45.944;12.480;2023-03-23T09:52:55;38.38;;;27.02;;
40997;SDS011;26740;45.944;12.480;2023-03-23T09:55:21;40.80;;;28.27;;
40997;SDS011;26740;45.944;12.480;2023-03-23T09:57:50;38.88;;;30.30;;
40997;SDS011;26740;45.944;12.480;2023-03-23T10:00:24;41.55;;;28.23;;
40997;SDS011;26740;45.944;12.480;2023-03-23T10:08:13;40.60;;;29.02;;
40997;SDS011;26740;45.944;12.480;2023-03-23T10:16:02;41.72;;;29.98;;
40997;SDS011;26740;45.944;12.480;2023-03-23T10:18:40;37.08;;;28.60;;
40997;SDS011;26740;45.944;12.480;2023-03-23T10:21:15;39.38;;;27.50;;
40997;SDS011;26740;45.944;12.480;2023-03-23T10:23:47;40.13;;;28.52;;
40997;SDS011;26740;45.944;12.480;2023-03-23T10:28:56;46.83;;;29.30;;
40997;SDS011;26740;45.944;12.480;2023-03-23T10:31:28;39.53;;;27.60;;
40997;SDS011;26740;45.944;12.480;2023-03-23T10:34:45;34.13;;;27.05;;
40997;SDS011;26740;45.944;12.480;2023-03-23T10:37:10;37.85;;;26.45;;
40997;SDS011;26740;45.944;12.480;2023-03-23T10:39:59;34.58;;;25.80;;
40997;SDS011;26740;45.944;12.480;2023-03-23T10:44:52;34.03;;;27.45;;
40997;SDS011;26740;45.944;12.480;2023-03-23T10:47:18;33.60;;;26.35;;
40997;SDS011;26740;45.944;12.480;2023-03-23T10:49:45;30.50;;;24.42;;
40997;SDS011;26740;45.944;12.480;2023-03-23T10:52:34;32.83;;;23.08;;
40997;SDS011;26740;45.944;12.480;2023-03-23T10:57:43;35.58;;;25.20;;
40997;SDS011;26740;45.944;12.480;2023-03-23T11:00:26;43.40;;;25.85;;
40997;SDS011;26740;45.944;12.480;2023-03-23T11:03:06;30.65;;;23.63;;
40997;SDS011;26740;45.944;12.480;2023-03-23T11:05:53;33.28;;;25.02;;
40997;SDS011;26740;45.944;12.480;2023-03-23T11:08:28;36.85;;;24.20;;
40997;SDS011;26740;45.944;12.480;2023-03-23T11:11:24;30.23;;;23.42;;
40997;SDS011;26740;45.944;12.480;2023-03-23T11:13:59;26.85;;;21.70;;
40997;SDS011;26740;45.944;12.480;2023-03-23T11:16:31;29.77;;;21.20;;
40997;SDS011;26740;45.944;12.480;2023-03-23T11:18:59;32.03;;;21.00;;
40997;SDS011;26740;45.944;12.480;2023-03-23T11:21:27;25.98;;;19.65;;
40997;SDS011;26740;45.944;12.480;2023-03-23T11:23:54;26.67;;;20.35;;
40997;SDS011;26740;45.944;12.480;2023-03-23T11:26:30;27.30;;;19.85;;
40997;SDS011;26740;45.944;12.480;2023-03-23T11:31:45;24.27;;;18.83;;
40997;SDS011;26740;45.944;12.480;2023-03-23T11:36:55;22.67;;;18.75;;
40997;SDS011;26740;45.944;12.480;2023-03-23T11:39:26;22.75;;;17.80;;
40997;SDS011;26740;45.944;12.480;2023-03-23T11:41:53;22.55;;;17.75;;
40997;SDS011;26740;45.944;12.480;2023-03-23T11:44:20;19.27;;;12.70;;
40997;SDS011;26740;45.944;12.480;2023-03-23T11:49:40;15.48;;;11.00;;
40997;SDS011;26740;45.944;12.480;2023-03-23T11:54:41;17.77;;;12.75;;
40997;SDS011;26740;45.944;12.480;2023-03-23T11:57:12;19.48;;;14.40;;
40997;SDS011;26740;45.944;12.480;2023-03-23T11:59:38;19.65;;;13.77;;
40997;SDS011;26740;45.944;12.480;2023-03-23T12:04:56;15.60;;;11.88;;
40997;SDS011;26740;45.944;12.480;2023-03-23T12:07:39;13.55;;;9.60;;
40997;SDS011;26740;45.944;12.480;2023-03-23T12:16:14;13.52;;;9.93;;
40997;SDS011;26740;45.944;12.480;2023-03-23T12:30:38;14.10;;;9.07;;
40997;SDS011;26740;45.944;12.480;2023-03-23T12:35:38;10.55;;;9.07;;
40997;SDS011;26740;45.944;12.480;2023-03-23T12:51:57;11.00;;;9.00;;
40997;SDS011;26740;45.944;12.480;2023-03-23T12:55:01;13.05;;;8.93;;
40997;SDS011;26740;45.944;12.480;2023-03-23T13:02:39;14.52;;;10.90;;
40997;SDS011;26740;45.944;12.480;2023-03-23T13:07:54;15.48;;;9.82;;
40997;SDS011;26740;45.944;12.480;2023-03-23T13:10:38;12.60;;;10.80;;
40997;SDS011;26740;45.944;12.480;2023-03-23T13:13:11;15.02;;;11.15;;
40997;SDS011;26740;45.944;12.480;2023-03-23T13:18:23;14.65;;;11.90;;
40997;SDS011;26740;45.944;12.480;2023-03-23T13:21:06;15.30;;;11.43;;
40997;SDS011;26740;45.944;12.480;2023-03-23T13:26:48;16.30;;;10.27;;
40997;SDS011;26740;45.944;12.480;2023-03-23T13:29:17;14.73;;;11.35;;
40997;SDS011;26740;45.944;12.480;2023-03-23T13:31:45;16.67;;;12.70;;
40997;SDS011;26740;45.944;12.480;2023-03-23T13:34:19;19.45;;;12.55;;
40997;SDS011;26740;45.944;12.480;2023-03-23T13:39:23;26.38;;;12.15;;
40997;SDS011;26740;45.944;12.480;2023-03-23T13:42:04;20.95;;;13.32;;
40997;SDS011;26740;45.944;12.480;2023-03-23T13:57:51;14.90;;;11.77;;
40997;SDS011;26740;45.944;12.480;2023-03-23T14:00:36;17.80;;;12.38;;
40997;SDS011;26740;45.944;12.480;2023-03-23T14:03:15;15.68;;;13.43;;
40997;SDS011;26740;45.944;12.480;2023-03-23T14:08:23;18.55;;;15.13;;
40997;SDS011;26740;45.944;12.480;2023-03-23T14:11:09;22.60;;;17.23;;
40997;SDS011;26740;45.944;12.480;2023-03-23T14:18:41;24.25;;;18.23;;
40997;SDS011;26740;45.944;12.480;2023-03-23T14:21:14;28.67;;;17.33;;
40997;SDS011;26740;45.944;12.480;2023-03-23T14:23:41;25.50;;;16.98;;
40997;SDS011;26740;45.944;12.480;2023-03-23T14:26:11;22.95;;;16.10;;
40997;SDS011;26740;45.944;12.480;2023-03-23T14:28:43;24.65;;;17.42;;
40997;SDS011;26740;45.944;12.480;2023-03-23T14:31:31;22.35;;;16.08;;
40997;SDS011;26740;45.944;12.480;2023-03-23T14:34:01;25.30;;;18.15;;
40997;SDS011;26740;45.944;12.480;2023-03-23T14:36:31;24.35;;;16.25;;
40997;SDS011;26740;45.944;12.480;2023-03-23T14:41:37;20.67;;;15.55;;
40997;SDS011;26740;45.944;12.480;2023-03-23T14:44:03;21.33;;;17.40;;
40997;SDS011;26740;45.944;12.480;2023-03-23T14:46:33;25.55;;;16.65;;
40997;SDS011;26740;45.944;12.480;2023-03-23T14:49:04;22.35;;;15.75;;
40997;SDS011;26740;45.944;12.480;2023-03-23T14:53:57;24.63;;;16.83;;
40997;SDS011;26740;45.944;12.480;2023-03-23T14:56:32;23.43;;;16.60;;
40997;SDS011;26740;45.944;12.480;2023-03-23T14:59:06;20.13;;;15.63;;
40997;SDS011;26740;45.944;12.480;2023-03-23T15:01:35;23.33;;;16.85;;
40997;SDS011;26740;45.944;12.480;2023-03-23T15:06:35;25.77;;;16.52;;
40997;SDS011;26740;45.944;12.480;2023-03-23T15:09:04;20.70;;;14.60;;
40997;SDS011;26740;45.944;12.480;2023-03-23T15:11:33;19.77;;;15.63;;
40997;SDS011;26740;45.944;12.480;2023-03-23T15:14:14;21.35;;;15.95;;
40997;SDS011;26740;45.944;12.480;2023-03-23T15:16:49;23.05;;;15.85;;
40997;SDS011;26740;45.944;12.480;2023-03-23T15:19:19;19.73;;;14.75;;
40997;SDS011;26740;45.944;12.480;2023-03-23T15:21:52;20.10;;;15.98;;
40997;SDS011;26740;45.944;12.480;2023-03-23T15:24:38;18.98;;;14.88;;
40997;SDS011;26740;45.944;12.480;2023-03-23T15:27:12;22.80;;;15.75;;
40997;SDS011;26740;45.944;12.480;2023-03-23T15:29:47;18.25;;;14.40;;
40997;SDS011;26740;45.944;12.480;2023-03-23T15:32:19;23.30;;;15.63;;
40997;SDS011;26740;45.944;12.480;2023-03-23T15:34:49;17.48;;;12.60;;
40997;SDS011;26740;45.944;12.480;2023-03-23T15:37:20;12.23;;;8.23;;
40997;SDS011;26740;45.944;12.480;2023-03-23T15:39:46;9.88;;;7.47;;
40997;SDS011;26740;45.944;12.480;2023-03-23T15:42:23;10.05;;;8.38;;
40997;SDS011;26740;45.944;12.480;2023-03-23T15:45:05;10.85;;;7.00;;
40997;SDS011;26740;45.944;12.480;2023-03-23T15:47:49;9.13;;;5.65;;
40997;SDS011;26740;45.944;12.480;2023-03-23T15:50:16;13.18;;;5.40;;
40997;SDS011;26740;45.944;12.480;2023-03-23T15:52:42;6.60;;;3.70;;
40997;SDS011;26740;45.944;12.480;2023-03-23T15:55:23;8.35;;;4.10;;
40997;SDS011;26740;45.944;12.480;2023-03-23T15:57:49;4.53;;;3.65;;
40997;SDS011;26740;45.944;12.480;2023-03-23T16:00:16;10.73;;;4.32;;
40997;SDS011;26740;45.944;12.480;2023-03-23T16:02:44;7.70;;;4.25;;
40997;SDS011;26740;45.944;12.480;2023-03-23T16:05:11;9.43;;;4.18;;
40997;SDS011;26740;45.944;12.480;2023-03-23T16:07:38;6.45;;;3.72;;
40997;SDS011;26740;45.944;12.480;2023-03-23T16:10:04;4.20;;;2.95;;
40997;SDS011;26740;45.944;12.480;2023-03-23T16:12:31;6.30;;;3.30;;
40997;SDS011;26740;45.944;12.480;2023-03-23T16:14:57;7.25;;;3.72;;
40997;SDS011;26740;45.944;12.480;2023-03-23T16:17:22;6.20;;;3.70;;
40997;SDS011;26740;45.944;12.480;2023-03-23T16:19:48;4.65;;;2.83;;
40997;SDS011;26740;45.944;12.480;2023-03-23T16:22:14;15.43;;;3.38;;
40997;SDS011;26740;45.944;12.480;2023-03-23T16:24:39;8.27;;;3.85;;
40997;SDS011;26740;45.944;12.480;2023-03-23T16:27:05;8.00;;;3.90;;
40997;SDS011;26740;45.944;12.480;2023-03-23T16:29:30;9.88;;;4.28;;
40997;SDS011;26740;45.944;12.480;2023-03-23T16:31:56;5.32;;;3.00;;
40997;SDS011;26740;45.944;12.480;2023-03-23T16:34:22;5.55;;;2.90;;
40997;SDS011;26740;45.944;12.480;2023-03-23T16:36:47;3.53;;;2.53;;
40997;SDS011;26740;45.944;12.480;2023-03-23T16:39:13;8.70;;;3.30;;
40997;SDS011;26740;45.944;12.480;2023-03-23T16:41:43;4.38;;;2.40;;
40997;SDS011;26740;45.944;12.480;2023-03-23T16:44:08;5.72;;;2.53;;